createdAt,value
2019-03-22T00:00:43.930Z,33.73
2019-03-22T02:36:00.718Z,38.92
2019-03-22T02:38:30.433Z,42.88
2019-03-22T02:41:00.123Z,45.70
2019-03-22T02:43:29.799Z,50.50
2019-03-22T02:45:59.479Z,49.50
2019-03-22T02:48:29.211Z,48.92
2019-03-22T02:50:58.930Z,42.83
2019-03-22T02:53:28.627Z,52.40
2019-03-22T02:55:58.658Z,39.45
2019-03-22T02:58:28.462Z,40.83
2019-03-22T03:00:58.113Z,46.20
2019-03-22T03:03:27.804Z,62.25
2019-03-22T03:05:57.515Z,51.28
2019-03-22T03:08:27.195Z,43.85
2019-03-22T03:10:56.904Z,52.40
2019-03-22T03:13:26.606Z,53.23
2019-03-22T03:15:56.270Z,46.63
2019-03-22T03:18:25.939Z,42.93
2019-03-22T03:20:55.640Z,41.08
2019-03-22T03:23:25.565Z,41.13
2019-03-22T03:25:55.262Z,35.65
2019-03-22T03:28:36.044Z,51.02
2019-03-22T03:30:56.396Z,41.88
2019-03-22T03:33:26.108Z,48.05
2019-03-22T03:35:55.790Z,47.70
2019-03-22T03:38:25.511Z,42.93
2019-03-22T03:40:55.234Z,40.33
2019-03-22T03:43:24.923Z,47.60
2019-03-22T03:45:54.636Z,49.53
2019-03-22T03:48:24.345Z,46.58
2019-03-22T03:50:54.149Z,41.28
2019-03-22T03:53:23.842Z,50.50
2019-03-22T03:55:53.503Z,45.00
2019-03-22T03:58:23.176Z,58.98
2019-03-22T04:00:52.868Z,75.00
2019-03-22T04:03:22.553Z,71.53
2019-03-22T04:05:52.276Z,67.12
2019-03-22T04:08:21.972Z,69.85
2019-03-22T04:10:51.666Z,49.40
2019-03-22T04:13:21.337Z,55.33
2019-03-22T04:15:51.077Z,47.98
2019-03-22T04:18:20.955Z,43.52
2019-03-22T04:20:50.741Z,44.53
2019-03-22T04:23:20.501Z,60.65
2019-03-22T04:25:50.183Z,63.28
2019-03-22T04:28:20.123Z,57.30
2019-03-22T04:30:50.017Z,68.37
2019-03-22T04:33:19.809Z,43.83
2019-03-22T04:35:49.496Z,64.32
2019-03-22T04:38:19.157Z,69.90
2019-03-22T04:40:48.870Z,66.20
2019-03-22T04:43:18.534Z,60.10
2019-03-22T04:45:50.347Z,71.17
2019-03-22T04:48:28.193Z,59.03
2019-03-22T04:51:00.959Z,42.78
2019-03-22T04:53:35.585Z,65.92
2019-03-22T04:58:36.398Z,54.77
2019-03-22T05:01:07.031Z,41.48
2019-03-22T05:03:38.393Z,59.08
2019-03-22T05:06:09.770Z,42.58
2019-03-22T05:08:41.813Z,38.98
2019-03-22T05:11:14.453Z,55.35
2019-03-22T05:13:46.178Z,69.47
2019-03-22T05:16:18.530Z,85.53
2019-03-22T05:18:51.326Z,74.37
2019-03-22T05:21:25.006Z,53.68
2019-03-22T05:24:18.297Z,50.33
2019-03-22T05:26:50.092Z,93.00
2019-03-22T05:29:40.096Z,69.75
2019-03-22T05:32:12.315Z,67.35
2019-03-22T05:34:42.054Z,89.28
2019-03-22T05:37:11.820Z,43.08
2019-03-22T05:39:41.797Z,80.22
2019-03-22T05:42:11.610Z,58.75
2019-03-22T05:44:41.280Z,71.42
2019-03-22T05:47:11.018Z,73.60
2019-03-22T05:49:40.691Z,81.80
2019-03-22T05:52:10.462Z,59.05
2019-03-22T05:54:40.143Z,69.07
2019-03-22T05:57:13.588Z,61.95
2019-03-22T05:59:42.799Z,67.90
2019-03-22T06:02:12.679Z,102.55
2019-03-22T06:04:42.362Z,80.50
2019-03-22T06:07:12.023Z,70.60
2019-03-22T06:09:41.797Z,92.85
2019-03-22T06:12:11.503Z,66.82
2019-03-22T06:14:41.179Z,52.33
2019-03-22T06:17:10.929Z,61.18
2019-03-22T06:19:40.584Z,87.02
2019-03-22T06:22:10.286Z,49.38
2019-03-22T06:24:39.924Z,74.92
2019-03-22T06:27:09.592Z,83.72
2019-03-22T06:29:39.280Z,60.75
2019-03-22T06:32:08.962Z,49.75
2019-03-22T06:34:38.700Z,57.05
2019-03-22T06:37:08.374Z,46.08
2019-03-22T06:39:38.014Z,63.25
2019-03-22T06:42:07.703Z,62.80
2019-03-22T06:44:37.382Z,60.80
2019-03-22T06:47:07.072Z,54.60
2019-03-22T06:49:36.737Z,84.42
2019-03-22T06:52:06.423Z,49.10
2019-03-22T06:54:36.100Z,46.02
2019-03-22T06:57:05.763Z,49.03
2019-03-22T06:59:35.519Z,46.28
2019-03-22T07:02:05.251Z,50.83
2019-03-22T07:04:34.919Z,67.87
2019-03-22T07:07:04.610Z,67.32
2019-03-22T07:09:34.280Z,54.55
2019-03-22T07:12:03.949Z,51.48
2019-03-22T07:14:33.619Z,75.42
2019-03-22T07:17:03.326Z,52.35
2019-03-22T07:19:32.976Z,48.70
2019-03-22T07:22:02.617Z,49.13
2019-03-22T07:24:32.293Z,88.78
2019-03-22T07:27:01.945Z,58.52
2019-03-22T07:29:31.615Z,57.85
2019-03-22T07:32:01.289Z,61.55
2019-03-22T07:34:31.000Z,50.60
2019-03-22T07:37:00.680Z,47.20
2019-03-22T07:39:30.333Z,45.78
2019-03-22T07:42:00.021Z,45.25
2019-03-22T07:44:29.664Z,44.27
2019-03-22T07:46:59.324Z,41.20
2019-03-22T07:49:28.973Z,37.83
2019-03-22T07:51:58.666Z,43.08
2019-03-22T07:54:28.304Z,53.00
2019-03-22T07:56:57.952Z,40.95
2019-03-22T07:59:27.664Z,39.75
2019-03-22T08:01:57.363Z,59.23
2019-03-22T08:04:27.040Z,81.97
2019-03-22T08:06:56.712Z,56.02
2019-03-22T08:09:26.429Z,62.17
2019-03-22T08:11:56.087Z,42.45
2019-03-22T08:14:25.772Z,39.15
2019-03-22T08:16:55.451Z,47.30
2019-03-22T08:19:25.190Z,42.17
2019-03-22T08:21:54.830Z,58.25
2019-03-22T08:24:24.482Z,43.45
2019-03-22T08:26:54.169Z,45.10
2019-03-22T08:29:23.841Z,58.85
2019-03-22T08:31:53.591Z,80.92
2019-03-22T08:34:23.324Z,50.95
2019-03-22T08:36:52.963Z,79.97
2019-03-22T08:39:22.619Z,56.08
2019-03-22T08:41:52.295Z,42.60
2019-03-22T08:44:21.971Z,62.70
2019-03-22T08:46:51.633Z,72.35
2019-03-22T08:49:21.344Z,49.73
2019-03-22T08:51:51.135Z,43.63
2019-03-22T08:54:20.782Z,53.28
2019-03-22T08:56:50.492Z,44.45
2019-03-22T08:59:20.362Z,38.95
2019-03-22T09:01:50.060Z,41.85
2019-03-22T09:04:19.719Z,45.23
2019-03-22T09:06:49.437Z,49.23
2019-03-22T09:09:19.100Z,52.93
2019-03-22T09:11:48.708Z,51.77
2019-03-22T09:14:18.362Z,50.38
2019-03-22T09:16:48.074Z,45.88
2019-03-22T09:19:17.708Z,46.88
2019-03-22T09:21:47.437Z,45.60
2019-03-22T09:24:19.028Z,54.18
2019-03-22T09:26:48.528Z,48.60
2019-03-22T09:29:18.231Z,48.90
2019-03-22T09:31:47.918Z,51.00
2019-03-22T09:34:17.542Z,49.40
2019-03-22T09:36:47.188Z,50.35
2019-03-22T09:39:16.882Z,49.70
2019-03-22T09:41:46.551Z,54.33
2019-03-22T09:44:16.246Z,50.60
2019-03-22T09:46:45.936Z,53.75
2019-03-22T09:49:15.613Z,51.15
2019-03-22T09:51:45.323Z,52.10
2019-03-22T09:54:15.038Z,48.15
2019-03-22T09:56:47.215Z,43.02
2019-03-22T09:59:16.153Z,46.58
2019-03-22T10:01:45.861Z,37.95
2019-03-22T10:04:15.526Z,49.05
2019-03-22T10:06:45.311Z,43.95
2019-03-22T10:09:14.952Z,43.28
2019-03-22T10:11:44.627Z,43.38
2019-03-22T10:14:14.298Z,34.70
2019-03-22T10:16:43.975Z,35.95
2019-03-22T10:19:13.616Z,37.93
2019-03-22T10:21:43.381Z,36.20
2019-03-22T10:24:13.067Z,40.08
2019-03-22T10:26:42.708Z,34.15
2019-03-22T10:29:12.396Z,30.97
2019-03-22T10:31:42.112Z,31.50
2019-03-22T10:34:11.787Z,31.45
2019-03-22T10:36:41.500Z,27.87
2019-03-22T10:39:11.436Z,27.15
2019-03-22T10:41:41.140Z,30.30
2019-03-22T10:44:10.815Z,27.17
2019-03-22T10:46:40.545Z,23.87
2019-03-22T10:49:10.207Z,24.02
2019-03-22T10:51:39.887Z,25.43
2019-03-22T10:54:09.602Z,23.38
2019-03-22T10:56:39.285Z,21.27
2019-03-22T10:59:08.949Z,20.25
2019-03-22T11:01:48.664Z,19.00
2019-03-22T11:06:39.681Z,22.35
2019-03-22T11:09:10.177Z,20.05
2019-03-22T11:11:39.852Z,20.95
2019-03-22T11:14:09.575Z,19.77
2019-03-22T11:16:39.326Z,19.77
2019-03-22T11:19:08.984Z,19.70
2019-03-22T11:21:38.654Z,20.30
2019-03-22T11:24:08.297Z,18.80
2019-03-22T11:26:37.969Z,20.32
2019-03-22T11:29:07.716Z,15.40
2019-03-22T11:31:40.135Z,21.15
2019-03-22T11:34:08.788Z,15.48
2019-03-22T11:36:38.460Z,14.28
2019-03-22T11:39:15.913Z,14.83
2019-03-22T11:41:43.686Z,17.92
2019-03-22T11:44:13.375Z,18.05
2019-03-22T11:46:43.060Z,17.02
2019-03-22T11:49:12.864Z,13.15
2019-03-22T11:51:42.620Z,16.12
2019-03-22T11:54:12.360Z,16.07
2019-03-22T11:56:42.033Z,16.00
2019-03-22T11:59:11.751Z,16.20
2019-03-22T12:01:41.449Z,16.05
2019-03-22T12:04:11.969Z,15.65
2019-03-22T12:06:41.631Z,13.95
2019-03-22T12:09:11.341Z,11.78
2019-03-22T12:11:42.146Z,10.05
2019-03-22T12:14:11.999Z,8.78
2019-03-22T12:16:41.737Z,11.05
2019-03-22T12:19:11.400Z,12.07
2019-03-22T12:21:41.110Z,10.13
2019-03-22T12:24:10.864Z,12.03
2019-03-22T12:26:40.583Z,11.25
2019-03-22T12:29:10.274Z,14.85
2019-03-22T12:31:39.955Z,11.93
2019-03-22T12:34:09.675Z,8.65
2019-03-22T12:36:39.425Z,8.20
2019-03-22T12:39:10.053Z,9.15
2019-03-22T12:41:39.732Z,9.33
2019-03-22T12:44:09.482Z,11.20
2019-03-22T12:46:39.169Z,10.45
2019-03-22T12:49:08.850Z,9.78
2019-03-22T12:51:38.514Z,8.90
2019-03-22T12:54:08.215Z,9.90
2019-03-22T12:56:37.884Z,10.10
2019-03-22T12:59:07.635Z,8.93
2019-03-22T13:01:37.311Z,10.23
2019-03-22T13:04:07.000Z,10.18
2019-03-22T13:06:36.722Z,9.40
2019-03-22T13:09:09.185Z,6.90
2019-03-22T13:11:38.912Z,8.65
2019-03-22T13:14:08.583Z,8.65
2019-03-22T13:16:38.271Z,10.90
2019-03-22T13:19:07.922Z,9.98
2019-03-22T13:21:37.613Z,10.48
2019-03-22T13:24:07.307Z,10.00
2019-03-22T13:26:36.989Z,13.43
2019-03-22T13:29:06.699Z,13.25
2019-03-22T13:31:36.457Z,8.28
2019-03-22T13:34:06.161Z,12.75
2019-03-22T13:36:35.860Z,11.40
2019-03-22T13:39:08.184Z,10.20
2019-03-22T13:41:38.002Z,10.93
2019-03-22T13:44:07.849Z,14.98
2019-03-22T13:46:40.617Z,10.63
2019-03-22T13:49:09.119Z,12.80
2019-03-22T13:51:38.923Z,12.40
2019-03-22T13:54:08.614Z,10.40
2019-03-22T13:56:38.366Z,11.05
2019-03-22T13:59:08.058Z,7.72
2019-03-22T14:01:37.725Z,9.83
2019-03-22T14:04:07.461Z,12.33
2019-03-22T14:06:37.233Z,14.47
2019-03-22T14:09:08.805Z,11.83
2019-03-22T14:11:38.567Z,11.08
2019-03-22T14:14:08.263Z,12.63
2019-03-22T14:16:37.969Z,9.55
2019-03-22T14:19:07.647Z,8.75
2019-03-22T14:21:37.313Z,9.00
2019-03-22T14:24:07.013Z,8.38
2019-03-22T14:26:36.693Z,8.43
2019-03-22T14:29:06.403Z,9.38
2019-03-22T14:31:36.085Z,9.33
2019-03-22T14:34:05.757Z,9.40
2019-03-22T14:36:35.413Z,10.03
2019-03-22T14:39:07.840Z,9.10
2019-03-22T14:41:37.538Z,8.88
2019-03-22T14:44:07.255Z,6.80
2019-03-22T14:46:36.932Z,7.05
2019-03-22T14:49:06.599Z,8.30
2019-03-22T14:51:36.284Z,6.67
2019-03-22T14:54:05.951Z,5.65
2019-03-22T14:56:35.622Z,6.67
2019-03-22T14:59:05.291Z,6.97
2019-03-22T15:01:34.959Z,7.55
2019-03-22T15:04:04.650Z,5.03
2019-03-22T15:06:34.326Z,5.25
2019-03-22T15:09:05.700Z,6.65
2019-03-22T15:11:35.454Z,5.37
2019-03-22T15:14:15.237Z,4.37
2019-03-22T15:17:05.804Z,7.25
2019-03-22T15:19:53.036Z,6.28
2019-03-22T15:22:44.502Z,5.20
2019-03-22T15:25:33.586Z,5.45
2019-03-22T15:28:21.979Z,5.78
2019-03-22T15:31:13.052Z,4.45
2019-03-22T15:34:07.906Z,4.92
2019-03-22T15:36:54.289Z,5.65
2019-03-22T15:39:49.220Z,4.42
2019-03-22T15:42:18.869Z,3.95
2019-03-22T15:44:48.571Z,5.58
2019-03-22T15:47:18.235Z,5.95
2019-03-22T15:49:56.792Z,7.67
2019-03-22T15:52:26.518Z,5.67
2019-03-22T15:54:56.209Z,11.22
2019-03-22T15:57:26.023Z,6.92
2019-03-22T15:59:55.713Z,6.33
2019-03-22T16:02:25.387Z,4.85
2019-03-22T16:04:55.083Z,9.93
2019-03-22T16:07:24.843Z,6.28
2019-03-22T16:09:54.578Z,7.75
2019-03-22T16:12:24.262Z,6.67
2019-03-22T16:14:53.954Z,6.03
2019-03-22T16:17:23.646Z,6.83
2019-03-22T16:19:53.376Z,6.95
2019-03-22T16:22:23.079Z,7.20
2019-03-22T16:24:52.764Z,9.78
2019-03-22T16:27:22.490Z,6.00
2019-03-22T16:29:52.213Z,10.05
2019-03-22T16:32:21.850Z,7.42
2019-03-22T16:34:51.554Z,6.87
2019-03-22T16:37:21.307Z,4.85
2019-03-22T16:39:51.038Z,4.80
2019-03-22T16:42:20.742Z,5.30
2019-03-22T16:44:50.374Z,4.25
2019-03-22T16:47:20.092Z,4.58
2019-03-22T16:49:49.862Z,5.03
2019-03-22T16:52:19.556Z,4.78
2019-03-22T16:54:49.215Z,5.12
2019-03-22T16:57:18.898Z,4.00
2019-03-22T16:59:48.677Z,3.37
2019-03-22T17:02:18.442Z,4.35
2019-03-22T17:04:48.299Z,5.47
2019-03-22T17:07:18.028Z,4.05
2019-03-22T17:09:47.917Z,5.03
2019-03-22T17:12:17.638Z,4.95
2019-03-22T17:14:47.364Z,4.97
2019-03-22T17:17:17.124Z,6.65
2019-03-22T17:19:46.847Z,3.77
2019-03-22T17:22:16.547Z,3.37
2019-03-22T17:24:46.313Z,4.62
2019-03-22T17:27:16.062Z,4.25
2019-03-22T17:29:45.953Z,4.53
2019-03-22T17:32:15.691Z,4.83
2019-03-22T17:34:45.461Z,5.55
2019-03-22T17:37:15.294Z,4.05
2019-03-22T17:39:47.230Z,5.25
2019-03-22T17:42:17.202Z,6.33
2019-03-22T17:44:46.867Z,8.85
2019-03-22T17:47:16.577Z,9.28
2019-03-22T17:49:48.415Z,7.58
2019-03-22T17:52:17.870Z,8.85
2019-03-22T17:54:47.702Z,9.15
2019-03-22T17:57:18.976Z,16.55
2019-03-22T17:59:48.920Z,10.48
2019-03-22T18:02:18.614Z,6.53
2019-03-22T18:04:48.386Z,6.60
2019-03-22T18:07:18.123Z,6.22
2019-03-22T18:09:47.888Z,5.70
2019-03-22T18:12:17.591Z,5.22
2019-03-22T18:14:47.916Z,7.78
2019-03-22T18:17:17.715Z,9.00
2019-03-22T18:19:47.408Z,5.70
2019-03-22T18:22:17.129Z,6.53
2019-03-22T18:24:47.232Z,6.47
2019-03-22T18:27:17.087Z,8.70
2019-03-22T18:29:46.944Z,10.05
2019-03-22T18:32:16.871Z,7.20
2019-03-22T18:34:46.563Z,8.90
2019-03-22T18:37:16.288Z,7.35
2019-03-22T18:39:46.053Z,8.00
2019-03-22T18:42:15.913Z,6.05
2019-03-22T18:44:45.631Z,7.67
2019-03-22T18:47:15.403Z,5.58
2019-03-22T18:49:45.321Z,6.12
2019-03-22T18:52:15.989Z,6.58
2019-03-22T18:54:45.889Z,5.53
2019-03-22T18:57:15.653Z,8.15
2019-03-22T18:59:46.149Z,6.50
2019-03-22T19:02:15.943Z,6.40
2019-03-22T19:04:46.139Z,10.28
2019-03-22T19:07:16.283Z,6.55
2019-03-22T19:09:46.464Z,5.28
2019-03-22T19:12:16.158Z,7.47
2019-03-22T19:14:46.057Z,6.28
2019-03-22T19:17:15.949Z,8.85
2019-03-22T19:19:45.802Z,7.20
2019-03-22T19:22:15.776Z,5.92
2019-03-22T19:24:45.469Z,8.30
2019-03-22T19:27:15.283Z,6.37
2019-03-22T19:29:45.012Z,5.67
2019-03-22T19:32:14.787Z,8.48
2019-03-22T19:34:53.923Z,6.58
2019-03-22T19:37:16.167Z,8.83
2019-03-22T19:39:45.916Z,10.15
2019-03-22T19:42:15.630Z,7.58
2019-03-22T19:44:45.639Z,6.75
2019-03-22T19:47:15.881Z,7.60
2019-03-22T19:49:45.567Z,7.33
2019-03-22T19:52:15.353Z,10.78
2019-03-22T19:54:45.089Z,9.98
2019-03-22T19:57:14.978Z,10.93
2019-03-22T19:59:44.746Z,9.40
2019-03-22T20:02:14.530Z,8.78
2019-03-22T20:04:44.392Z,10.58
2019-03-22T20:07:14.174Z,8.48
2019-03-22T20:09:44.521Z,11.43
2019-03-22T20:12:14.195Z,9.28
2019-03-22T20:14:44.033Z,9.20
2019-03-22T20:17:13.873Z,9.35
2019-03-22T20:19:43.650Z,12.85
2019-03-22T20:22:13.620Z,11.30
2019-03-22T20:24:43.363Z,10.53
2019-03-22T20:27:13.060Z,10.85
2019-03-22T20:29:42.788Z,9.48
2019-03-22T20:32:12.706Z,8.45
2019-03-22T20:34:42.418Z,9.93
2019-03-22T20:37:12.136Z,9.63
2019-03-22T20:39:42.083Z,9.90
2019-03-22T20:42:11.783Z,11.63
2019-03-22T20:44:41.872Z,11.33
2019-03-22T20:47:11.873Z,12.28
2019-03-22T20:49:41.729Z,8.83
2019-03-22T20:52:11.661Z,10.10
2019-03-22T20:54:41.469Z,15.20
2019-03-22T20:57:11.403Z,9.90
2019-03-22T20:59:41.496Z,15.80
2019-03-22T21:02:11.201Z,16.12
2019-03-22T21:04:40.949Z,12.35
2019-03-22T21:07:10.744Z,11.93
2019-03-22T21:09:40.437Z,13.15
2019-03-22T21:12:10.136Z,11.55
2019-03-22T21:14:40.001Z,12.37
2019-03-22T21:17:09.753Z,12.47
2019-03-22T21:19:39.468Z,11.88
2019-03-22T21:22:09.288Z,13.68
2019-03-22T21:24:39.507Z,11.90
2019-03-22T21:27:15.568Z,13.00
2019-03-22T21:29:44.395Z,12.78
2019-03-22T21:32:12.910Z,12.43
2019-03-22T21:34:44.139Z,13.83
2019-03-22T21:37:14.232Z,14.10
2019-03-22T21:39:43.960Z,14.30
2019-03-22T21:42:13.700Z,15.75
2019-03-22T21:44:43.606Z,11.30
2019-03-22T21:47:13.382Z,16.00
2019-03-22T21:49:43.114Z,14.05
2019-03-22T21:52:12.809Z,15.95
2019-03-22T21:54:42.700Z,14.68
2019-03-22T21:57:12.699Z,12.88
2019-03-22T21:59:42.582Z,13.60
2019-03-22T22:02:12.331Z,11.45
2019-03-22T22:04:42.147Z,12.33
2019-03-22T22:07:11.917Z,13.25
2019-03-22T22:09:41.615Z,14.00
2019-03-22T22:12:11.439Z,11.10
2019-03-22T22:14:41.364Z,12.03
2019-03-22T22:17:11.056Z,33.75
2019-03-22T22:19:40.798Z,29.32
2019-03-22T22:22:10.539Z,15.88
2019-03-22T22:24:40.326Z,14.78
2019-03-22T22:27:13.978Z,12.28
2019-03-22T22:29:41.552Z,14.70
2019-03-22T22:32:11.583Z,13.48
2019-03-22T22:34:41.376Z,12.65
2019-03-22T22:37:11.052Z,12.47
2019-03-22T22:39:40.765Z,11.10
2019-03-22T22:42:10.532Z,13.43
2019-03-22T22:44:40.295Z,12.37
2019-03-22T22:47:09.990Z,13.65
2019-03-22T22:49:39.918Z,14.63
2019-03-22T22:52:09.671Z,15.18
2019-03-22T22:54:39.501Z,12.40
2019-03-22T22:57:09.236Z,13.28
2019-03-22T22:59:38.954Z,10.08
2019-03-22T23:02:08.672Z,35.80
2019-03-22T23:04:38.339Z,29.65
2019-03-22T23:07:08.007Z,19.02
2019-03-22T23:09:37.682Z,13.62
2019-03-22T23:12:07.513Z,14.33
2019-03-22T23:14:37.178Z,11.15
2019-03-22T23:17:06.869Z,12.58
2019-03-22T23:19:36.701Z,11.73
2019-03-22T23:22:06.391Z,13.22
2019-03-22T23:24:36.098Z,16.70
2019-03-22T23:27:05.757Z,12.70
2019-03-22T23:29:35.617Z,17.02
2019-03-22T23:32:05.369Z,19.98
2019-03-22T23:34:35.071Z,25.40
2019-03-22T23:37:07.032Z,20.00
2019-03-22T23:39:36.193Z,17.32
2019-03-22T23:42:05.888Z,15.25
2019-03-22T23:44:35.564Z,17.52
2019-03-22T23:47:05.426Z,13.43
2019-03-22T23:49:35.073Z,13.10
2019-03-22T23:52:04.750Z,13.00
2019-03-22T23:54:34.445Z,14.58
2019-03-22T23:57:04.124Z,12.80
2019-03-22T23:59:33.812Z,15.03
